createdAt,value
2018-01-28T00:01:32.270Z,65.32
2018-01-28T00:04:01.644Z,58.28
2018-01-28T00:06:31.015Z,60.83
2018-01-28T00:09:00.615Z,60.00
2018-01-28T00:11:30.756Z,49.78
2018-01-28T00:14:00.136Z,52.25
2018-01-28T00:16:30.255Z,50.85
2018-01-28T00:19:00.386Z,53.50
2018-01-28T00:21:29.758Z,48.33
2018-01-28T00:23:59.120Z,53.45
2018-01-28T00:26:28.492Z,53.20
2018-01-28T00:28:57.868Z,52.45
2018-01-28T00:31:27.224Z,55.70
2018-01-28T00:33:56.587Z,51.35
2018-01-28T00:36:26.728Z,48.45
2018-01-28T00:38:56.075Z,57.08
2018-01-28T00:41:25.443Z,49.00
2018-01-28T00:43:54.788Z,45.65
2018-01-28T00:46:24.164Z,51.08
2018-01-28T00:48:53.521Z,42.53
2018-01-28T00:51:23.657Z,52.50
2018-01-28T00:53:53.033Z,49.90
2018-01-28T00:56:22.382Z,50.08
2018-01-28T00:58:51.743Z,49.80
2018-01-28T01:01:21.899Z,86.43
2018-01-28T01:03:51.277Z,145.60
2018-01-28T01:06:20.635Z,55.22
2018-01-28T01:08:49.988Z,54.80
2018-01-28T01:11:19.376Z,77.22
2018-01-28T01:13:49.513Z,51.72
2018-01-28T01:16:18.883Z,83.97
2018-01-28T01:18:48.230Z,77.22
2018-01-28T01:21:17.618Z,62.85
2018-01-28T01:23:46.981Z,88.70
2018-01-28T01:26:16.363Z,70.70
2018-01-28T01:28:45.862Z,75.20
2018-01-28T01:31:15.232Z,37.88
2018-01-28T01:33:44.585Z,46.33
2018-01-28T01:36:13.954Z,39.97
2018-01-28T01:38:43.321Z,55.53
2018-01-28T01:41:12.681Z,35.55
2018-01-28T01:43:42.022Z,48.10
2018-01-28T01:46:11.392Z,34.55
2018-01-28T01:48:40.745Z,40.63
2018-01-28T01:51:10.112Z,37.47
2018-01-28T01:53:40.236Z,35.55
2018-01-28T01:56:10.385Z,32.45
2018-01-28T01:58:39.734Z,30.90
2018-01-28T02:01:09.089Z,36.88
2018-01-28T02:03:38.460Z,30.83
2018-01-28T02:06:08.590Z,25.42
2018-01-28T02:08:37.972Z,29.35
2018-01-28T02:11:07.321Z,33.15
2018-01-28T02:13:36.689Z,25.65
2018-01-28T02:16:06.802Z,33.08
2018-01-28T02:18:36.936Z,31.37
2018-01-28T02:21:07.056Z,29.08
2018-01-28T02:23:36.419Z,27.37
2018-01-28T02:26:05.778Z,32.97
2018-01-28T02:28:35.138Z,35.55
2018-01-28T02:31:04.506Z,28.62
2018-01-28T02:33:33.864Z,33.92
2018-01-28T02:36:04.004Z,32.72
2018-01-28T02:38:33.379Z,31.20
2018-01-28T02:41:03.505Z,30.30
2018-01-28T02:43:33.833Z,30.70
2018-01-28T02:46:03.179Z,31.37
2018-01-28T02:48:32.539Z,32.60
2018-01-28T02:51:01.916Z,33.13
2018-01-28T02:53:31.273Z,33.63
2018-01-28T02:56:00.651Z,31.92
2018-01-28T02:58:30.011Z,32.15
2018-01-28T03:00:59.364Z,38.65
2018-01-28T03:03:28.723Z,36.75
2018-01-28T03:05:58.094Z,35.80
2018-01-28T03:08:27.459Z,33.13
2018-01-28T03:10:56.799Z,37.08
2018-01-28T03:13:26.160Z,33.30
2018-01-28T03:15:55.585Z,34.25
2018-01-28T03:18:24.928Z,32.30
2018-01-28T03:20:54.322Z,32.20
2018-01-28T03:23:23.684Z,35.53
2018-01-28T03:25:53.048Z,30.52
2018-01-28T03:28:22.413Z,30.73
2018-01-28T03:30:51.782Z,31.00
2018-01-28T03:33:21.141Z,30.27
2018-01-28T03:35:50.503Z,32.45
2018-01-28T03:38:19.864Z,31.92
2018-01-28T03:40:49.996Z,34.92
2018-01-28T03:43:19.344Z,28.60
2018-01-28T03:45:48.734Z,32.72
2018-01-28T03:48:18.075Z,29.27
2018-01-28T03:50:47.431Z,30.45
2018-01-28T03:53:16.800Z,26.00
2018-01-28T03:55:46.198Z,28.50
2018-01-28T03:58:16.357Z,31.17
2018-01-28T04:00:45.870Z,28.20
2018-01-28T04:03:15.985Z,26.27
2018-01-28T04:05:45.355Z,33.10
2018-01-28T04:08:14.731Z,25.20
2018-01-28T04:10:44.085Z,29.37
2018-01-28T04:13:13.475Z,29.40
2018-01-28T04:15:42.826Z,25.65
2018-01-28T04:18:12.192Z,34.50
2018-01-28T04:20:41.571Z,23.83
2018-01-28T04:23:10.928Z,26.30
2018-01-28T04:25:40.304Z,33.40
2018-01-28T04:28:09.666Z,29.12
2018-01-28T04:30:39.782Z,27.45
2018-01-28T04:33:09.908Z,25.25
2018-01-28T04:35:39.277Z,25.17
2018-01-28T04:38:08.643Z,28.38
2018-01-28T04:40:37.990Z,28.67
2018-01-28T04:43:08.124Z,26.52
2018-01-28T04:45:38.246Z,26.95
2018-01-28T04:48:08.392Z,26.23
2018-01-28T04:50:37.781Z,22.10
2018-01-28T04:53:07.129Z,24.60
2018-01-28T04:55:36.477Z,28.33
2018-01-28T04:58:05.906Z,24.83
2018-01-28T05:00:37.029Z,22.73
2018-01-28T05:03:06.386Z,21.10
2018-01-28T05:05:35.733Z,23.38
2018-01-28T05:08:05.103Z,20.85
2018-01-28T05:10:34.453Z,20.60
2018-01-28T05:13:03.819Z,19.75
2018-01-28T05:15:33.957Z,19.92
2018-01-28T05:18:03.347Z,18.40
2018-01-28T05:20:33.461Z,18.27
2018-01-28T05:23:03.601Z,23.15
2018-01-28T05:25:32.949Z,18.27
2018-01-28T05:28:02.286Z,19.27
2018-01-28T05:30:32.428Z,17.33
2018-01-28T05:33:01.791Z,20.27
2018-01-28T05:35:31.146Z,16.40
2018-01-28T05:38:00.502Z,13.77
2018-01-28T05:40:29.909Z,13.20
2018-01-28T05:43:00.012Z,15.60
2018-01-28T05:45:29.378Z,12.25
2018-01-28T05:47:58.733Z,13.18
2018-01-28T05:50:28.856Z,12.93
2018-01-28T05:52:59.004Z,10.30
2018-01-28T05:55:28.469Z,10.50
2018-01-28T05:57:57.821Z,17.98
2018-01-28T06:00:27.197Z,14.98
2018-01-28T06:02:56.534Z,10.80
2018-01-28T06:05:25.899Z,16.87
2018-01-28T06:07:55.239Z,13.13
2018-01-28T06:10:24.605Z,9.18
2018-01-28T06:12:53.952Z,10.82
2018-01-28T06:15:23.306Z,10.65
2018-01-28T06:17:52.655Z,10.63
2018-01-28T06:20:22.027Z,9.52
2018-01-28T06:22:51.423Z,11.77
2018-01-28T06:25:20.763Z,10.75
2018-01-28T06:27:50.274Z,12.05
2018-01-28T06:30:19.644Z,11.57
2018-01-28T06:32:49.254Z,11.70
2018-01-28T06:35:18.624Z,10.20
2018-01-28T06:37:48.748Z,8.45
2018-01-28T06:40:18.905Z,10.20
2018-01-28T06:42:48.238Z,9.60
2018-01-28T06:45:17.590Z,10.13
2018-01-28T06:47:46.976Z,9.93
2018-01-28T06:50:16.361Z,9.85
2018-01-28T06:52:45.710Z,12.80
2018-01-28T06:55:15.076Z,9.27
2018-01-28T06:57:44.449Z,10.80
2018-01-28T07:00:13.810Z,9.60
2018-01-28T07:02:43.154Z,10.35
2018-01-28T07:05:12.564Z,9.43
2018-01-28T07:07:41.888Z,10.52
2018-01-28T07:10:12.029Z,9.05
2018-01-28T07:12:41.382Z,11.12
2018-01-28T07:15:10.733Z,10.13
2018-01-28T07:17:40.089Z,8.80
2018-01-28T07:20:09.439Z,7.50
2018-01-28T07:22:38.934Z,8.68
2018-01-28T07:25:08.271Z,10.35
2018-01-28T07:27:37.627Z,8.73
2018-01-28T07:30:06.971Z,9.93
2018-01-28T07:32:36.310Z,7.18
2018-01-28T07:35:06.438Z,9.95
2018-01-28T07:37:36.552Z,7.03
2018-01-28T07:40:05.927Z,9.88
2018-01-28T07:42:35.288Z,8.90
2018-01-28T07:45:04.638Z,8.88
2018-01-28T07:47:33.997Z,8.00
2018-01-28T07:50:03.342Z,7.90
2018-01-28T07:52:32.700Z,7.70
2018-01-28T07:55:02.073Z,10.50
2018-01-28T07:57:32.250Z,7.35
2018-01-28T08:00:01.599Z,8.35
2018-01-28T08:02:30.954Z,8.30
2018-01-28T08:05:00.314Z,9.60
2018-01-28T08:07:29.697Z,6.18
2018-01-28T08:10:00.250Z,6.03
2018-01-28T08:12:29.595Z,5.70
2018-01-28T08:14:58.946Z,5.72
2018-01-28T08:17:28.309Z,8.82
2018-01-28T08:19:58.480Z,8.15
2018-01-28T08:22:27.848Z,5.93
2018-01-28T08:24:57.998Z,6.85
2018-01-28T08:30:32.048Z,6.28
2018-01-28T08:33:01.709Z,6.37
2018-01-28T08:35:31.817Z,6.80
2018-01-28T08:38:01.177Z,6.28
2018-01-28T08:40:30.528Z,5.55
2018-01-28T08:43:00.634Z,7.68
2018-01-28T08:45:29.990Z,7.47
2018-01-28T08:47:59.355Z,5.97
2018-01-28T08:50:28.701Z,7.72
2018-01-28T08:52:58.060Z,6.03
2018-01-28T08:55:28.175Z,19.12
2018-01-28T08:57:58.292Z,14.10
2018-01-28T09:00:28.420Z,11.10
2018-01-28T09:02:58.539Z,5.20
2018-01-28T09:05:28.651Z,6.50
2018-01-28T09:07:58.776Z,5.75
2018-01-28T09:10:28.147Z,8.00
2018-01-28T09:12:57.485Z,4.43
2018-01-28T09:15:27.629Z,6.75
2018-01-28T09:17:57.001Z,4.72
2018-01-28T09:20:27.243Z,4.70
2018-01-28T09:22:56.583Z,5.57
2018-01-28T09:25:25.940Z,5.65
2018-01-28T09:27:55.278Z,4.90
2018-01-28T09:30:24.623Z,7.10
2018-01-28T09:32:54.123Z,5.50
2018-01-28T09:35:23.477Z,7.72
2018-01-28T09:37:52.810Z,7.20
2018-01-28T09:40:22.162Z,6.90
2018-01-28T09:42:51.495Z,5.87
2018-01-28T09:45:20.862Z,5.57
2018-01-28T09:47:50.211Z,9.10
2018-01-28T09:50:19.637Z,6.97
2018-01-28T09:52:49.030Z,5.35
2018-01-28T09:55:18.352Z,4.85
2018-01-28T09:57:48.459Z,5.82
2018-01-28T10:00:17.822Z,4.68
2018-01-28T10:02:47.175Z,4.15
2018-01-28T10:05:17.434Z,4.87
2018-01-28T10:07:46.829Z,21.90
2018-01-28T10:10:16.192Z,5.47
2018-01-28T10:12:45.584Z,6.47
2018-01-28T10:15:14.937Z,3.45
2018-01-28T10:17:44.287Z,3.47
2018-01-28T10:20:13.645Z,3.15
2018-01-28T10:22:43.136Z,3.67
2018-01-28T10:25:12.482Z,4.07
2018-01-28T10:27:41.834Z,4.95
2018-01-28T10:30:11.203Z,2.90
2018-01-28T10:32:40.561Z,3.25
2018-01-28T10:35:09.922Z,3.08
2018-01-28T10:37:40.019Z,2.92
2018-01-28T10:40:09.374Z,3.85
2018-01-28T10:42:38.709Z,3.15
2018-01-28T10:45:08.070Z,4.65
2018-01-28T10:47:37.438Z,3.15
2018-01-28T10:50:07.584Z,2.87
2018-01-28T10:52:36.953Z,2.55
2018-01-28T10:55:06.301Z,2.92
2018-01-28T10:57:35.673Z,83.62
2018-01-28T11:00:05.885Z,3.08
2018-01-28T11:02:35.258Z,3.42
2018-01-28T11:05:04.704Z,3.60
2018-01-28T11:07:34.849Z,2.30
2018-01-28T11:10:04.207Z,3.65
2018-01-28T11:12:33.585Z,3.45
2018-01-28T11:15:03.081Z,3.90
2018-01-28T11:17:32.461Z,3.47
2018-01-28T11:20:01.799Z,3.17
2018-01-28T11:22:31.162Z,3.20
2018-01-28T11:25:00.523Z,3.53
2018-01-28T11:27:29.876Z,3.83
2018-01-28T11:29:59.456Z,3.03
2018-01-28T11:32:28.839Z,2.92
2018-01-28T11:34:58.968Z,4.25
2018-01-28T11:37:28.331Z,3.60
2018-01-28T11:39:57.698Z,2.20
2018-01-28T11:42:27.090Z,4.37
2018-01-28T11:44:56.455Z,2.08
2018-01-28T11:47:25.815Z,3.45
2018-01-28T11:49:56.140Z,2.92
2018-01-28T11:52:25.533Z,6.00
2018-01-28T11:54:54.898Z,4.25
2018-01-28T11:57:25.053Z,3.10
2018-01-28T11:59:54.984Z,5.40
2018-01-28T12:02:24.342Z,2.65
2018-01-28T12:04:54.626Z,2.30
2018-01-28T12:07:24.467Z,13.95
2018-01-28T12:09:54.609Z,3.78
2018-01-28T12:12:23.973Z,3.20
2018-01-28T12:14:53.343Z,3.45
2018-01-28T12:17:22.712Z,2.40
2018-01-28T12:19:52.863Z,3.42
2018-01-28T12:22:22.228Z,1.95
2018-01-28T12:24:52.381Z,3.35
2018-01-28T12:27:21.740Z,7.32
2018-01-28T12:29:51.864Z,6.20
2018-01-28T12:32:21.997Z,2.33
2018-01-28T12:34:51.879Z,2.85
2018-01-28T12:37:21.250Z,3.35
2018-01-28T12:39:50.629Z,2.35
2018-01-28T12:42:19.996Z,4.40
2018-01-28T12:44:49.362Z,2.33
2018-01-28T12:47:18.742Z,3.65
2018-01-28T12:49:48.111Z,3.05
2018-01-28T12:52:18.267Z,5.07
2018-01-28T12:54:47.656Z,2.90
2018-01-28T12:57:17.028Z,2.47
2018-01-28T12:59:47.159Z,3.05
2018-01-28T13:02:17.283Z,2.50
2018-01-28T13:04:47.432Z,2.08
2018-01-28T13:07:16.791Z,1.92
2018-01-28T13:09:46.923Z,3.08
2018-01-28T13:12:16.285Z,2.87
2018-01-28T13:14:45.685Z,2.20
2018-01-28T13:17:15.048Z,2.83
2018-01-28T13:19:44.431Z,2.50
2018-01-28T13:22:14.558Z,2.40
2018-01-28T13:24:43.930Z,2.85
2018-01-28T13:27:13.286Z,2.75
2018-01-28T13:29:42.643Z,2.72
2018-01-28T13:32:12.790Z,3.60
2018-01-28T13:34:42.164Z,2.87
2018-01-28T13:37:11.542Z,2.67
2018-01-28T13:39:40.913Z,2.37
2018-01-28T13:42:10.267Z,3.55
2018-01-28T13:44:39.637Z,8.07
2018-01-28T13:47:09.021Z,2.35
2018-01-28T13:49:39.317Z,2.00
2018-01-28T13:52:08.716Z,2.05
2018-01-28T13:54:38.846Z,2.35
2018-01-28T13:57:08.226Z,2.08
2018-01-28T13:59:38.377Z,2.90
2018-01-28T14:02:07.739Z,3.58
2018-01-28T14:04:37.112Z,2.53
2018-01-28T14:07:06.485Z,2.80
2018-01-28T14:09:35.865Z,2.50
2018-01-28T14:12:05.988Z,2.12
2018-01-28T14:14:36.788Z,2.10
2018-01-28T14:17:06.146Z,2.00
2018-01-28T14:19:35.523Z,2.00
2018-01-28T14:22:05.652Z,2.75
2018-01-28T14:24:35.060Z,2.30
2018-01-28T14:27:04.419Z,2.55
2018-01-28T14:29:33.772Z,1.98
2018-01-28T14:32:03.167Z,3.40
2018-01-28T14:34:32.538Z,3.05
2018-01-28T14:37:01.913Z,2.65
2018-01-28T14:39:32.193Z,2.85
2018-01-28T14:42:01.575Z,4.03
2018-01-28T14:44:31.702Z,3.37
2018-01-28T14:47:02.087Z,3.22
2018-01-28T14:49:31.445Z,2.80
2018-01-28T14:52:00.804Z,2.33
2018-01-28T14:54:30.205Z,2.40
2018-01-28T14:56:59.560Z,3.62
2018-01-28T14:59:28.937Z,5.43
2018-01-28T15:01:59.077Z,2.95
2018-01-28T15:04:28.433Z,2.25
2018-01-28T15:06:57.817Z,2.78
2018-01-28T15:09:27.169Z,3.72
2018-01-28T15:11:57.450Z,2.62
2018-01-28T15:14:28.653Z,3.75
2018-01-28T15:16:58.033Z,3.83
2018-01-28T15:22:04.453Z,5.80
2018-01-28T15:24:33.809Z,3.33
2018-01-28T15:27:03.931Z,4.20
2018-01-28T15:29:34.052Z,5.82
2018-01-28T15:32:04.199Z,3.35
2018-01-28T15:34:33.557Z,4.07
2018-01-28T15:37:02.915Z,5.60
2018-01-28T15:39:32.320Z,3.95
2018-01-28T15:42:01.657Z,3.97
2018-01-28T15:44:31.025Z,4.20
2018-01-28T15:47:00.416Z,3.83
2018-01-28T15:49:30.455Z,5.32
2018-01-28T15:51:59.823Z,3.25
2018-01-28T15:54:29.216Z,4.10
2018-01-28T15:56:59.337Z,3.33
2018-01-28T15:59:28.702Z,5.25
2018-01-28T16:01:58.076Z,4.10
2018-01-28T16:04:28.045Z,4.62
2018-01-28T16:06:58.205Z,3.90
2018-01-28T16:09:27.590Z,3.65
2018-01-28T16:11:56.943Z,3.65
2018-01-28T16:14:26.312Z,6.62
2018-01-28T16:16:55.672Z,3.10
2018-01-28T16:19:25.812Z,5.20
2018-01-28T16:21:55.168Z,6.07
2018-01-28T16:24:24.745Z,9.27
2018-01-28T16:26:54.212Z,6.50
2018-01-28T16:29:24.380Z,5.72
2018-01-28T16:31:53.736Z,8.35
2018-01-28T16:34:24.055Z,4.40
2018-01-28T16:36:54.180Z,6.70
2018-01-28T16:39:24.358Z,6.78
2018-01-28T16:41:53.723Z,10.57
2018-01-28T16:44:23.082Z,8.27
2018-01-28T16:46:52.481Z,10.32
2018-01-28T16:49:21.839Z,47.53
2018-01-28T16:51:51.192Z,12.68
2018-01-28T16:54:20.552Z,7.20
2018-01-28T16:56:49.940Z,6.62
2018-01-28T16:59:19.313Z,4.65
2018-01-28T17:01:49.445Z,7.82
2018-01-28T17:04:18.828Z,6.05
2018-01-28T17:06:48.934Z,5.60
2018-01-28T17:09:18.314Z,7.45
2018-01-28T17:11:47.667Z,6.50
2018-01-28T17:14:17.040Z,7.18
2018-01-28T17:16:46.396Z,6.45
2018-01-28T17:19:15.804Z,6.72
2018-01-28T17:21:45.194Z,9.20
2018-01-28T17:24:14.552Z,8.68
2018-01-28T17:26:43.935Z,15.82
2018-01-28T17:29:13.304Z,7.62
2018-01-28T17:31:42.676Z,6.35
2018-01-28T17:34:12.818Z,14.48
2018-01-28T17:36:42.196Z,8.40
2018-01-28T17:39:11.569Z,10.30
2018-01-28T17:41:40.932Z,5.45
2018-01-28T17:44:10.311Z,6.93
2018-01-28T17:46:39.657Z,9.52
2018-01-28T17:49:09.805Z,7.60
2018-01-28T17:51:39.163Z,6.85
2018-01-28T17:54:08.518Z,7.82
2018-01-28T17:56:38.648Z,5.28
2018-01-28T17:59:08.756Z,5.93
2018-01-28T18:01:38.901Z,7.70
2018-01-28T18:04:09.034Z,10.35
2018-01-28T18:06:38.425Z,8.38
2018-01-28T18:09:07.798Z,14.23
2018-01-28T18:11:37.941Z,14.15
2018-01-28T18:14:07.310Z,9.35
2018-01-28T18:16:36.713Z,15.27
2018-01-28T18:19:06.090Z,20.02
2018-01-28T18:21:35.449Z,10.75
2018-01-28T18:24:04.825Z,14.18
2018-01-28T18:26:34.847Z,12.15
2018-01-28T18:29:04.224Z,10.48
2018-01-28T18:31:33.599Z,11.95
2018-01-28T18:34:02.975Z,9.95
2018-01-28T18:36:32.345Z,10.18
2018-01-28T18:39:01.715Z,8.75
2018-01-28T18:41:31.082Z,11.00
2018-01-28T18:44:00.455Z,10.52
2018-01-28T18:46:29.843Z,13.57
2018-01-28T18:48:59.223Z,9.52
2018-01-28T18:51:28.592Z,11.38
2018-01-28T18:53:57.943Z,8.57
2018-01-28T18:56:27.303Z,9.18
2018-01-28T18:58:56.662Z,8.38
2018-01-28T19:01:26.023Z,7.62
2018-01-28T19:03:55.387Z,9.48
2018-01-28T19:06:24.806Z,11.23
2018-01-28T19:08:54.131Z,8.02
2018-01-28T19:11:23.496Z,9.95
2018-01-28T19:13:53.614Z,8.65
2018-01-28T19:16:23.759Z,8.30
2018-01-28T19:18:53.126Z,12.50
2018-01-28T19:21:23.265Z,8.95
2018-01-28T19:23:52.640Z,7.60
2018-01-28T19:26:21.984Z,11.05
2018-01-28T19:28:51.363Z,6.32
2018-01-28T19:31:21.481Z,9.43
2018-01-28T19:33:51.611Z,9.82
2018-01-28T19:36:21.734Z,8.50
2018-01-28T19:38:51.100Z,12.52
2018-01-28T19:41:20.492Z,26.33
2018-01-28T19:43:49.838Z,14.50
2018-01-28T19:46:19.222Z,14.82
2018-01-28T19:48:49.344Z,15.10
2018-01-28T19:51:19.493Z,12.13
2018-01-28T19:53:48.840Z,9.90
2018-01-28T19:56:18.198Z,9.30
2018-01-28T19:58:47.556Z,11.27
2018-01-28T20:01:17.063Z,10.55
2018-01-28T20:03:46.430Z,9.30
2018-01-28T20:06:15.776Z,9.40
2018-01-28T20:08:45.974Z,10.68
2018-01-28T20:11:15.325Z,11.60
2018-01-28T20:13:44.697Z,9.50
2018-01-28T20:16:14.083Z,10.65
2018-01-28T20:18:43.453Z,11.18
2018-01-28T20:21:12.809Z,10.95
2018-01-28T20:23:42.931Z,12.77
2018-01-28T20:26:13.074Z,12.68
2018-01-28T20:28:42.470Z,8.25
2018-01-28T20:31:12.770Z,13.07
2018-01-28T20:33:42.896Z,12.13
2018-01-28T20:36:13.015Z,10.70
2018-01-28T20:38:43.166Z,10.73
2018-01-28T20:41:12.520Z,13.73
2018-01-28T20:43:41.863Z,9.38
2018-01-28T20:46:11.236Z,12.68
2018-01-28T20:48:40.604Z,11.50
2018-01-28T20:51:09.980Z,11.65
2018-01-28T20:53:39.359Z,11.85
2018-01-28T20:56:09.031Z,9.95
2018-01-28T20:58:38.464Z,9.60
2018-01-28T21:01:08.585Z,8.93
2018-01-28T21:03:38.785Z,10.45
2018-01-28T21:06:08.116Z,13.20
2018-01-28T21:08:37.494Z,13.40
2018-01-28T21:11:07.621Z,9.73
2018-01-28T21:13:37.772Z,9.88
2018-01-28T21:16:07.133Z,9.35
2018-01-28T21:18:36.505Z,8.48
2018-01-28T21:21:05.866Z,8.98
2018-01-28T21:23:35.237Z,9.10
2018-01-28T21:26:05.381Z,8.60
2018-01-28T21:28:35.522Z,9.57
2018-01-28T21:31:04.876Z,6.65
2018-01-28T21:33:34.730Z,11.48
2018-01-28T21:36:04.188Z,7.03
2018-01-28T21:38:33.554Z,7.90
2018-01-28T21:41:02.923Z,5.95
2018-01-28T21:43:33.033Z,7.68
2018-01-28T21:46:03.166Z,8.60
2018-01-28T21:48:32.512Z,6.68
2018-01-28T21:51:01.852Z,6.85
2018-01-28T21:53:31.212Z,6.30
2018-01-28T21:56:00.561Z,8.15
2018-01-28T21:58:30.677Z,6.87
2018-01-28T22:01:00.818Z,6.60
2018-01-28T22:03:30.204Z,9.40
2018-01-28T22:06:00.313Z,11.25
2018-01-28T22:08:30.452Z,22.35
2018-01-28T22:10:59.824Z,19.55
2018-01-28T22:13:29.202Z,14.45
2018-01-28T22:15:58.578Z,28.48
2018-01-28T22:18:27.936Z,20.75
2018-01-28T22:20:57.310Z,18.02
2018-01-28T22:23:26.659Z,12.07
2018-01-28T22:25:56.792Z,8.75
2018-01-28T22:28:26.144Z,9.40
2018-01-28T22:30:55.528Z,9.50
2018-01-28T22:33:24.895Z,6.20
2018-01-28T22:35:54.245Z,5.85
2018-01-28T22:38:23.616Z,5.00
2018-01-28T22:40:53.055Z,9.60
2018-01-28T22:43:22.430Z,5.45
2018-01-28T22:45:51.795Z,5.15
2018-01-28T22:48:21.923Z,4.60
2018-01-28T22:50:52.030Z,4.35
2018-01-28T22:53:22.143Z,4.80
2018-01-28T22:55:52.272Z,4.15
2018-01-28T22:58:22.401Z,4.43
2018-01-28T23:00:51.792Z,8.15
2018-01-28T23:03:21.934Z,4.10
2018-01-28T23:05:51.304Z,3.97
2018-01-28T23:08:21.412Z,3.42
2018-01-28T23:10:50.782Z,3.90
2018-01-28T23:13:20.135Z,7.12
2018-01-28T23:15:49.517Z,4.90
2018-01-28T23:18:18.880Z,8.10
2018-01-28T23:20:48.234Z,6.60
2018-01-28T23:23:18.367Z,12.00
2018-01-28T23:25:47.731Z,7.12
2018-01-28T23:28:17.094Z,8.25
2018-01-28T23:30:47.062Z,6.68
2018-01-28T23:33:16.438Z,8.65
2018-01-28T23:35:45.801Z,5.82
2018-01-28T23:38:15.169Z,7.43
2018-01-28T23:40:44.525Z,6.25
2018-01-28T23:43:13.891Z,7.35
2018-01-28T23:45:44.074Z,6.22
2018-01-28T23:48:13.561Z,4.57
2018-01-28T23:50:42.908Z,7.45
2018-01-28T23:53:12.282Z,5.22
2018-01-28T23:55:41.668Z,5.65
2018-01-28T23:58:11.021Z,6.68
